CSHVD LPFR-LPFR
Flight info
| Callsign | CSHVD |
|---|---|
| Flight time | 0h 4m |
| Altitude | 1500 |
| Route | VLMRA |
| Aircraft | EC35/L-VGD/C |
Departure
| Time | 2026-05-06 13:53 |
|---|---|
| Airport | Faro - Gago Coutinho International Airport (LPFR) |
Arrival
| Time | 2026-05-06 13:57 |
|---|---|
| Airport | Faro - Gago Coutinho International Airport (LPFR) |
| Time | Latitude | Longitude | Altitude | Speed | Heading |
|---|---|---|---|---|---|
| 2026-05-06 13:22 | 37.01712 | -7.96652 | 20 ft | 0 kts | 193° |
| 2026-05-06 13:31 | 37.01712 | -7.96653 | 20 ft | 0 kts | 197° |
| 2026-05-06 13:31 | 37.01719 | -7.96653 | 27 ft | 1 kts | 202° |
| 2026-05-06 13:31 | 37.01731 | -7.96647 | 26 ft | 0 kts | 188° |
| 2026-05-06 13:32 | 37.01723 | -7.96650 | 26 ft | 1 kts | 158° |
| 2026-05-06 13:32 | 37.01714 | -7.96621 | 33 ft | 4 kts | 7° |
| 2026-05-06 13:32 | 37.01751 | -7.96621 | 36 ft | 7 kts | 4° |
| 2026-05-06 13:32 | 37.01792 | -7.96605 | 37 ft | 10 kts | 63° |
| 2026-05-06 13:33 | 37.01782 | -7.96536 | 36 ft | 8 kts | 175° |
| 2026-05-06 13:33 | 37.01746 | -7.96524 | 38 ft | 5 kts | 202° |
| 2026-05-06 13:33 | 37.01691 | -7.96536 | 56 ft | 9 kts | 197° |
| 2026-05-06 13:33 | 37.01611 | -7.96555 | 42 ft | 11 kts | 196° |
| 2026-05-06 13:34 | 37.01546 | -7.96568 | 22 ft | 2 kts | 203° |
| 2026-05-06 13:34 | 37.01540 | -7.96569 | 22 ft | 1 kts | 193° |
| 2026-05-06 13:34 | 37.01528 | -7.96575 | 38 ft | 6 kts | 198° |
| 2026-05-06 13:34 | 37.01460 | -7.96591 | 46 ft | 12 kts | 224° |
| 2026-05-06 13:35 | 37.01456 | -7.96676 | 38 ft | 5 kts | 287° |
| 2026-05-06 13:35 | 37.01495 | -7.96868 | 70 ft | 46 kts | 269° |
| 2026-05-06 13:35 | 37.01556 | -7.97373 | 144 ft | 69 kts | 268° |
| 2026-05-06 13:35 | 37.01642 | -7.98002 | 229 ft | 79 kts | 271° |
| 2026-05-06 13:36 | 37.01742 | -7.98682 | 344 ft | 76 kts | 272° |
| 2026-05-06 13:36 | 37.01815 | -7.99352 | 423 ft | 79 kts | 266° |
| 2026-05-06 13:36 | 37.01865 | -8.00049 | 451 ft | 85 kts | 274° |
| 2026-05-06 13:36 | 37.01915 | -8.00771 | 519 ft | 82 kts | 266° |
| 2026-05-06 13:37 | 37.01892 | -8.01480 | 542 ft | 79 kts | 262° |
| 2026-05-06 13:37 | 37.01987 | -8.02117 | 532 ft | 72 kts | 286° |
| 2026-05-06 13:37 | 37.02298 | -8.02581 | 496 ft | 67 kts | 307° |
| 2026-05-06 13:37 | 37.02596 | -8.02961 | 466 ft | 56 kts | 294° |
| 2026-05-06 13:38 | 37.02811 | -8.03365 | 422 ft | 57 kts | 291° |
| 2026-05-06 13:38 | 37.02995 | -8.03819 | 345 ft | 59 kts | 282° |
| 2026-05-06 13:38 | 37.03115 | -8.04285 | 252 ft | 52 kts | 274° |
| 2026-05-06 13:38 | 37.03169 | -8.04722 | 186 ft | 46 kts | 269° |
| 2026-05-06 13:39 | 37.03191 | -8.05070 | 259 ft | 35 kts | 270° |
| 2026-05-06 13:39 | 37.03246 | -8.05371 | 288 ft | 35 kts | 274° |
| 2026-05-06 13:39 | 37.03283 | -8.05657 | 289 ft | 32 kts | 266° |
| 2026-05-06 13:39 | 37.03314 | -8.05899 | 268 ft | 24 kts | 270° |
| 2026-05-06 13:40 | 37.03341 | -8.06094 | 199 ft | 20 kts | 269° |
| 2026-05-06 13:40 | 37.03358 | -8.06212 | 122 ft | 13 kts | 289° |
| 2026-05-06 13:40 | 37.03334 | -8.06333 | 136 ft | 15 kts | 292° |
| 2026-05-06 13:40 | 37.03352 | -8.06468 | 142 ft | 11 kts | 312° |
| 2026-05-06 13:41 | 37.03405 | -8.06535 | 77 ft | 10 kts | 339° |
| 2026-05-06 13:41 | 37.03470 | -8.06587 | 65 ft | 7 kts | 18° |
| 2026-05-06 13:41 | 37.03503 | -8.06585 | 42 ft | 3 kts | 76° |
| 2026-05-06 13:41 | 37.03509 | -8.06560 | 38 ft | 5 kts | 78° |
| 2026-05-06 13:42 | 37.03513 | -8.06558 | 39 ft | 4 kts | 87° |
| 2026-05-06 13:42 | 37.03508 | -8.06547 | 32 ft | 1 kts | 65° |
| 2026-05-06 13:42 | 37.03512 | -8.06539 | 27 ft | 1 kts | 72° |
| 2026-05-06 13:42 | 37.03512 | -8.06536 | 24 ft | 0 kts | 74° |
| 2026-05-06 13:46 | 37.03511 | -8.06539 | 26 ft | 0 kts | 72° |
| 2026-05-06 13:46 | 37.03510 | -8.06555 | 38 ft | 3 kts | 73° |
| 2026-05-06 13:46 | 37.03510 | -8.06572 | 52 ft | 3 kts | 82° |
| 2026-05-06 13:46 | 37.03493 | -8.06579 | 56 ft | 7 kts | 124° |
| 2026-05-06 13:47 | 37.03457 | -8.06605 | 143 ft | 15 kts | 220° |
| 2026-05-06 13:47 | 37.03356 | -8.06740 | 149 ft | 26 kts | 208° |
| 2026-05-06 13:47 | 37.03228 | -8.06917 | 175 ft | 26 kts | 203° |
| 2026-05-06 13:47 | 37.03085 | -8.07057 | 175 ft | 23 kts | 197° |
| 2026-05-06 13:48 | 37.02967 | -8.07160 | 126 ft | 16 kts | 191° |
| 2026-05-06 13:48 | 37.02886 | -8.07165 | 95 ft | 17 kts | 182° |
| 2026-05-06 13:48 | 37.02826 | -8.07138 | 69 ft | 3 kts | 190° |
| 2026-05-06 13:48 | 37.02798 | -8.07117 | 92 ft | 6 kts | 197° |
| 2026-05-06 13:49 | 37.02744 | -8.07117 | 134 ft | 11 kts | 193° |
| 2026-05-06 13:49 | 37.02629 | -8.07152 | 237 ft | 17 kts | 173° |
| 2026-05-06 13:49 | 37.02583 | -8.07149 | 203 ft | 3 kts | 173° |
| 2026-05-06 13:49 | 37.02586 | -8.07154 | 167 ft | 4 kts | 181° |
| 2026-05-06 13:50 | 37.02613 | -8.07164 | 125 ft | 4 kts | 158° |
| 2026-05-06 13:50 | 37.02648 | -8.07167 | 133 ft | 4 kts | 160° |
| 2026-05-06 13:50 | 37.02597 | -8.07176 | 119 ft | 7 kts | 175° |
| 2026-05-06 13:50 | 37.02585 | -8.07241 | 153 ft | 6 kts | 116° |
| 2026-05-06 13:51 | 37.02566 | -8.07178 | 110 ft | 6 kts | 130° |
| 2026-05-06 13:51 | 37.02566 | -8.07164 | 105 ft | 6 kts | 137° |
| 2026-05-06 13:51 | 37.02617 | -8.07195 | 171 ft | 18 kts | 250° |
| 2026-05-06 13:51 | 37.02718 | -8.07316 | 405 ft | 23 kts | 272° |
| 2026-05-06 13:52 | 37.02837 | -8.07482 | 466 ft | 28 kts | 256° |
| 2026-05-06 13:52 | 37.02951 | -8.07706 | 500 ft | 35 kts | 256° |
| 2026-05-06 13:52 | 37.02914 | -8.08039 | 562 ft | 45 kts | 204° |
| 2026-05-06 13:52 | 37.02768 | -8.08297 | 668 ft | 46 kts | 272° |
| 2026-05-06 13:53 | 37.03153 | -8.08392 | 742 ft | 71 kts | 358° |
| 2026-05-06 13:53 | 37.03545 | -8.08001 | 836 ft | 79 kts | 30° |
| 2026-05-06 13:53 | 37.03916 | -8.07531 | 963 ft | 71 kts | 22° |
| 2026-05-06 13:53 | 37.04341 | -8.07193 | 961 ft | 70 kts | 359° |
| 2026-05-06 13:54 | 37.04808 | -8.07173 | 931 ft | 69 kts | 323° |
| 2026-05-06 13:54 | 37.05206 | -8.07499 | 960 ft | 67 kts | 300° |
| 2026-05-06 13:54 | 37.05516 | -8.07935 | 969 ft | 70 kts | 296° |
| 2026-05-06 13:54 | 37.05809 | -8.08440 | 939 ft | 71 kts | 290° |
| 2026-05-06 13:55 | 37.06051 | -8.08989 | 863 ft | 73 kts | 282° |
| 2026-05-06 13:55 | 37.06222 | -8.09554 | 833 ft | 66 kts | 282° |
| 2026-05-06 13:55 | 37.06368 | -8.10049 | 851 ft | 55 kts | 286° |
| 2026-05-06 13:55 | 37.06548 | -8.10480 | 808 ft | 55 kts | 288° |
| 2026-05-06 13:56 | 37.06719 | -8.10905 | 761 ft | 52 kts | 287° |
| 2026-05-06 13:56 | 37.06892 | -8.11310 | 699 ft | 53 kts | 289° |
| 2026-05-06 13:56 | 37.07044 | -8.11749 | 639 ft | 55 kts | 286° |
| 2026-05-06 13:56 | 37.07201 | -8.12210 | 619 ft | 56 kts | 286° |
| 2026-05-06 13:57 | 37.07339 | -8.12646 | 641 ft | 49 kts | 287° |
| 2026-05-06 13:57 | 37.07510 | -8.12940 | 656 ft | 50 kts | 326° |
| 2026-05-06 13:57 | 37.07848 | -8.12719 | 649 ft | 65 kts | 53° |
| 2026-05-06 13:57 | 37.08083 | -8.12170 | 572 ft | 74 kts | 64° |
| 2026-05-06 13:58 | 37.08214 | -8.11564 | 546 ft | 69 kts | 87° |
| 2026-05-06 13:58 | 37.08225 | -8.11009 | 540 ft | 58 kts | 96° |
| 2026-05-06 13:58 | 37.08196 | -8.10545 | 574 ft | 47 kts | 113° |
| 2026-05-06 13:58 | 37.08132 | -8.10159 | 588 ft | 46 kts | 109° |
| 2026-05-06 13:59 | 37.08054 | -8.09751 | 601 ft | 50 kts | 114° |
| 2026-05-06 13:59 | 37.07959 | -8.09310 | 636 ft | 54 kts | 111° |
| 2026-05-06 13:59 | 37.07863 | -8.08868 | 690 ft | 53 kts | 116° |
| 2026-05-06 13:59 | 37.07798 | -8.08400 | 750 ft | 52 kts | 94° |
| 2026-05-06 14:00 | 37.07762 | -8.07968 | 773 ft | 55 kts | 110° |
| 2026-05-06 14:00 | 37.07632 | -8.07470 | 809 ft | 61 kts | 115° |
| 2026-05-06 14:00 | 37.07419 | -8.06917 | 812 ft | 76 kts | 112° |
| 2026-05-06 14:00 | 37.07265 | -8.06253 | 833 ft | 86 kts | 100° |
| 2026-05-06 14:01 | 37.07147 | -8.05505 | 892 ft | 85 kts | 103° |
| 2026-05-06 14:01 | 37.07000 | -8.04796 | 978 ft | 82 kts | 98° |
| 2026-05-06 14:01 | 37.06896 | -8.04100 | 1045 ft | 82 kts | 99° |
| 2026-05-06 14:01 | 37.06894 | -8.03370 | 1056 ft | 85 kts | 54° |
| 2026-05-06 14:02 | 37.07381 | -8.02921 | 977 ft | 94 kts | 19° |
| 2026-05-06 14:02 | 37.07970 | -8.02560 | 943 ft | 95 kts | 15° |
| 2026-05-06 14:02 | 37.08561 | -8.02271 | 986 ft | 88 kts | 9° |
| 2026-05-06 14:02 | 37.09132 | -8.02051 | 1053 ft | 83 kts | 7° |
| 2026-05-06 14:03 | 37.09660 | -8.01785 | 1117 ft | 80 kts | 11° |
| 2026-05-06 14:03 | 37.10184 | -8.01526 | 1134 ft | 85 kts | 10° |
| 2026-05-06 14:03 | 37.10753 | -8.01330 | 1165 ft | 83 kts | 1° |
| 2026-05-06 14:03 | 37.11339 | -8.01210 | 1156 ft | 85 kts | 354° |
| 2026-05-06 14:04 | 37.11901 | -8.01197 | 1133 ft | 74 kts | 342° |
| 2026-05-06 14:04 | 37.12374 | -8.01279 | 1133 ft | 61 kts | 336° |
| 2026-05-06 14:04 | 37.12745 | -8.01437 | 1096 ft | 55 kts | 315° |
| 2026-05-06 14:04 | 37.13061 | -8.01710 | 1032 ft | 55 kts | 311° |
| 2026-05-06 14:05 | 37.13347 | -8.02033 | 997 ft | 53 kts | 302° |
| 2026-05-06 14:05 | 37.13448 | -8.02389 | 974 ft | 42 kts | 252° |
| 2026-05-06 14:05 | 37.13373 | -8.02734 | 866 ft | 41 kts | 239° |
| 2026-05-06 14:05 | 37.13245 | -8.03014 | 763 ft | 30 kts | 239° |
| 2026-05-06 14:06 | 37.13180 | -8.03182 | 634 ft | 17 kts | 245° |
| 2026-05-06 14:06 | 37.13162 | -8.03271 | 494 ft | 13 kts | 263° |
| 2026-05-06 14:06 | 37.13142 | -8.03307 | 446 ft | 3 kts | 276° |
| 2026-05-06 14:06 | 37.13139 | -8.03315 | 408 ft | 1 kts | 279° |
| 2026-05-06 14:07 | 37.13140 | -8.03321 | 404 ft | 1 kts | 276° |
| 2026-05-06 14:07 | 37.13141 | -8.03322 | 403 ft | 0 kts | 275° |
| 2026-05-06 14:09 | 37.13141 | -8.03321 | 407 ft | 0 kts | 274° |
| 2026-05-06 14:09 | 37.13140 | -8.03319 | 411 ft | 1 kts | 274° |
| 2026-05-06 14:10 | 37.13140 | -8.03320 | 414 ft | 1 kts | 277° |
| 2026-05-06 14:10 | 37.13137 | -8.03326 | 435 ft | 1 kts | 276° |
| 2026-05-06 14:10 | 37.13076 | -8.03358 | 537 ft | 32 kts | 212° |
| 2026-05-06 14:10 | 37.12712 | -8.03218 | 679 ft | 77 kts | 153° |
| 2026-05-06 14:11 | 37.12194 | -8.02802 | 801 ft | 94 kts | 148° |
| 2026-05-06 14:11 | 37.11613 | -8.02320 | 885 ft | 105 kts | 151° |
| 2026-05-06 14:11 | 37.10958 | -8.01864 | 925 ft | 112 kts | 148° |
| 2026-05-06 14:11 | 37.10287 | -8.01314 | 902 ft | 119 kts | 145° |
| 2026-05-06 14:12 | 37.09613 | -8.00683 | 853 ft | 120 kts | 140° |
| 2026-05-06 14:12 | 37.09005 | -8.00030 | 922 ft | 113 kts | 138° |
| 2026-05-06 14:12 | 37.08451 | -7.99311 | 942 ft | 114 kts | 132° |
| 2026-05-06 14:12 | 37.07936 | -7.98548 | 947 ft | 116 kts | 136° |
| 2026-05-06 14:13 | 37.07395 | -7.97796 | 932 ft | 112 kts | 139° |
| 2026-05-06 14:13 | 37.06851 | -7.97150 | 892 ft | 107 kts | 143° |
| 2026-05-06 14:13 | 37.06266 | -7.96571 | 836 ft | 105 kts | 147° |
| 2026-05-06 14:13 | 37.05730 | -7.95970 | 811 ft | 101 kts | 132° |
| 2026-05-06 14:14 | 37.05316 | -7.95303 | 863 ft | 92 kts | 124° |
| 2026-05-06 14:14 | 37.05007 | -7.94641 | 936 ft | 85 kts | 116° |
| 2026-05-06 14:14 | 37.04739 | -7.94016 | 901 ft | 79 kts | 133° |
| 2026-05-06 14:14 | 37.04371 | -7.93542 | 793 ft | 73 kts | 147° |
| 2026-05-06 14:15 | 37.03920 | -7.93397 | 668 ft | 67 kts | 185° |
| 2026-05-06 14:15 | 37.03462 | -7.93403 | 596 ft | 62 kts | 191° |
| 2026-05-06 14:15 | 37.03062 | -7.93460 | 559 ft | 54 kts | 198° |
| 2026-05-06 14:15 | 37.02685 | -7.93536 | 539 ft | 55 kts | 201° |
| 2026-05-06 14:16 | 37.02287 | -7.93614 | 487 ft | 59 kts | 197° |
| 2026-05-06 14:16 | 37.01889 | -7.93705 | 458 ft | 58 kts | 204° |
| 2026-05-06 14:16 | 37.01599 | -7.94005 | 395 ft | 55 kts | 232° |
| 2026-05-06 14:16 | 37.01384 | -7.94370 | 305 ft | 49 kts | 239° |
| 2026-05-06 14:17 | 37.01238 | -7.94709 | 209 ft | 41 kts | 261° |
| 2026-05-06 14:17 | 37.01233 | -7.95042 | 157 ft | 36 kts | 281° |
| 2026-05-06 14:17 | 37.01273 | -7.95355 | 120 ft | 34 kts | 278° |
| 2026-05-06 14:17 | 37.01305 | -7.95582 | 81 ft | 22 kts | 298° |
| 2026-05-06 14:18 | 37.01335 | -7.95779 | 72 ft | 29 kts | 285° |
| 2026-05-06 14:18 | 37.01360 | -7.96028 | 53 ft | 23 kts | 285° |
| 2026-05-06 14:18 | 37.01393 | -7.96219 | 40 ft | 22 kts | 283° |
| 2026-05-06 14:18 | 37.01414 | -7.96394 | 36 ft | 18 kts | 292° |
| 2026-05-06 14:19 | 37.01435 | -7.96512 | 29 ft | 8 kts | 299° |
| 2026-05-06 14:19 | 37.01444 | -7.96561 | 31 ft | 5 kts | 336° |
| 2026-05-06 14:19 | 37.01478 | -7.96583 | 26 ft | 3 kts | 26° |
| 2026-05-06 14:19 | 37.01508 | -7.96572 | 27 ft | 8 kts | 8° |
| 2026-05-06 14:20 | 37.01565 | -7.96564 | 26 ft | 7 kts | 17° |
| 2026-05-06 14:20 | 37.01626 | -7.96545 | 27 ft | 7 kts | 358° |
| 2026-05-06 14:20 | 37.01689 | -7.96533 | 24 ft | 8 kts | 18° |
| 2026-05-06 14:20 | 37.01754 | -7.96521 | 26 ft | 10 kts | 340° |
| 2026-05-06 14:21 | 37.01786 | -7.96545 | 27 ft | 5 kts | 287° |
| 2026-05-06 14:21 | 37.01792 | -7.96588 | 33 ft | 7 kts | 285° |
| 2026-05-06 14:21 | 37.01793 | -7.96631 | 28 ft | 5 kts | 216° |
| 2026-05-06 14:21 | 37.01753 | -7.96642 | 26 ft | 5 kts | 194° |
| 2026-05-06 14:22 | 37.01716 | -7.96650 | 24 ft | 3 kts | 198° |
| 2026-05-06 14:22 | 37.01713 | -7.96652 | 22 ft | 1 kts | 198° |
| 2026-05-06 14:22 | 37.01714 | -7.96650 | 20 ft | 2 kts | 200° |
| 2026-05-06 14:22 | 37.01712 | -7.96651 | 20 ft | 0 kts | 195° |